<?xml version='1.0' encoding='UTF-8'?><gpx version="1.1" creator="JPX - https://github.com/jenetics/jpx" xmlns="http://www.topografix.com/GPX/1/1"><trk><trkseg><trkpt lat="45.05952700938827" lon="0.8669888578732313"><ele>212.99999999999997</ele><time>2026-04-28T16:26:28Z</time></trkpt><trkpt lat="45.059578265836926" lon="0.8670422517435565"><ele>213.0</ele><time>2026-04-28T16:26:34Z</time></trkpt><trkpt lat="45.0596365240265" lon="0.867088474461917"><ele>213.0</ele><time>2026-04-28T16:26:40Z</time></trkpt><trkpt lat="45.05968783875291" lon="0.867149135254134"><ele>213.0</ele><time>2026-04-28T16:26:45Z</time></trkpt><trkpt lat="45.059745121172085" lon="0.8672018189763991"><ele>213.0</ele><time>2026-04-28T16:26:50Z</time></trkpt><trkpt lat="45.05979635392608" lon="0.8672623576203815"><ele>212.99999999999997</ele><time>2026-04-28T16:26:55Z</time></trkpt><trkpt lat="45.0598541708812" lon="0.8673214020954699"><ele>213.0</ele><time>2026-04-28T16:27:01Z</time></trkpt><trkpt lat="45.059921371479874" lon="0.8673144494919103"><ele>212.99999999999997</ele><time>2026-04-28T16:27:07Z</time></trkpt><trkpt lat="45.059923924596916" lon="0.8672095811121227"><ele>213.0</ele><time>2026-04-28T16:27:15Z</time></trkpt><trkpt lat="45.05990370278158" lon="0.8671121149402198"><ele>213.0</ele><time>2026-04-28T16:27:21Z</time></trkpt><trkpt lat="45.0598686135185" lon="0.8670277421405715"><ele>213.0</ele><time>2026-04-28T16:27:26Z</time></trkpt><trkpt lat="45.05983845710473" lon="0.8669338054196534"><ele>213.0</ele><time>2026-04-28T16:27:31Z</time></trkpt><trkpt lat="45.05978063484425" lon="0.8668719454375151"><ele>212.99999999999997</ele><time>2026-04-28T16:27:37Z</time></trkpt><trkpt lat="45.0597053590321" lon="0.8668963110949026"><ele>213.0</ele><time>2026-04-28T16:27:43Z</time></trkpt><trkpt lat="45.05962970159999" lon="0.8668984283410189"><ele>212.99999999999997</ele><time>2026-04-28T16:27:49Z</time></trkpt><trkpt lat="45.05956986463142" lon="0.8668586660276729"><ele>213.0</ele><time>2026-04-28T16:27:54Z</time></trkpt><trkpt lat="45.0595061061827" lon="0.8668160327954176"><ele>213.0</ele><time>2026-04-28T16:27:59Z</time></trkpt><trkpt lat="45.0594502202821" lon="0.8667432944072478"><ele>213.0</ele><time>2026-04-28T16:28:04Z</time></trkpt><trkpt lat="45.05941964537563" lon="0.8666620772237754"><ele>213.0</ele><time>2026-04-28T16:28:11Z</time></trkpt><trkpt lat="45.059435858244676" lon="0.8665694396971565"><ele>212.99999999999997</ele><time>2026-04-28T16:28:16Z</time></trkpt><trkpt lat="45.05946901725294" lon="0.8664745731820823"><ele>213.0</ele><time>2026-04-28T16:28:22Z</time></trkpt><trkpt lat="45.05950576079244" lon="0.866398347912396"><ele>212.85714285714283</ele><time>2026-04-28T16:28:26Z</time></trkpt><trkpt lat="45.05955691879556" lon="0.8663443107790737"><ele>212.71428571428572</ele><time>2026-04-28T16:28:30Z</time></trkpt><trkpt lat="45.05960731431779" lon="0.8662872751713663"><ele>212.57142857142856</ele><time>2026-04-28T16:28:34Z</time></trkpt><trkpt lat="45.05967755382642" lon="0.8662896864605801"><ele>212.42857142857142</ele><time>2026-04-28T16:28:39Z</time></trkpt><trkpt lat="45.05974985199426" lon="0.8662893372590741"><ele>212.28571428571428</ele><time>2026-04-28T16:28:45Z</time></trkpt><trkpt lat="45.0598161073197" lon="0.866327941237971"><ele>212.14285714285714</ele><time>2026-04-28T16:28:51Z</time></trkpt><trkpt lat="45.05984580977348" lon="0.8664181967813015"><ele>212.0</ele><time>2026-04-28T16:28:57Z</time></trkpt><trkpt lat="45.05977809068904" lon="0.8664492273565578"><ele>212.0</ele><time>2026-04-28T16:29:03Z</time></trkpt><trkpt lat="45.05969347710932" lon="0.8664643498959392"><ele>212.0</ele><time>2026-04-28T16:29:08Z</time></trkpt><trkpt lat="45.05965017588662" lon="0.8665391558880522"><ele>212.0</ele><time>2026-04-28T16:29:14Z</time></trkpt><trkpt lat="45.05969126258432" lon="0.8666108454547182"><ele>212.0</ele><time>2026-04-28T16:29:19Z</time></trkpt><trkpt lat="45.05975823015137" lon="0.8666455108455511"><ele>212.0</ele><time>2026-04-28T16:29:25Z</time></trkpt><trkpt lat="45.05982167991793" lon="0.8666812972874453"><ele>212.0</ele><time>2026-04-28T16:29:30Z</time></trkpt><trkpt lat="45.05987779414969" lon="0.8666283148496254"><ele>212.0</ele><time>2026-04-28T16:29:34Z</time></trkpt><trkpt lat="45.059947257775484" lon="0.8666200705208366"><ele>211.42857142857144</ele><time>2026-04-28T16:29:40Z</time></trkpt><trkpt lat="45.060017743107984" lon="0.8666653313840552"><ele>210.85714285714283</ele><time>2026-04-28T16:29:45Z</time></trkpt><trkpt lat="45.060076460487565" lon="0.8667334495792098"><ele>210.28571428571428</ele><time>2026-04-28T16:29:50Z</time></trkpt><trkpt lat="45.060143943715616" lon="0.8667948540123375"><ele>209.71428571428572</ele><time>2026-04-28T16:29:56Z</time></trkpt><trkpt lat="45.060196188907774" lon="0.8668612865839855"><ele>209.14285714285717</ele><time>2026-04-28T16:30:01Z</time></trkpt><trkpt lat="45.060251442767274" lon="0.8669201186343839"><ele>208.57142857142856</ele><time>2026-04-28T16:30:06Z</time></trkpt><trkpt lat="45.060296939950746" lon="0.8669996675905671"><ele>208.0</ele><time>2026-04-28T16:30:11Z</time></trkpt><trkpt lat="45.060354334726334" lon="0.8670584364378411"><ele>208.0</ele><time>2026-04-28T16:30:16Z</time></trkpt><trkpt lat="45.060395357119994" lon="0.8671279668026861"><ele>208.0</ele><time>2026-04-28T16:30:21Z</time></trkpt><trkpt lat="45.060384692979966" lon="0.8672207617811224"><ele>208.0</ele><time>2026-04-28T16:30:27Z</time></trkpt><trkpt lat="45.06032063394197" lon="0.8672547257175254"><ele>208.0</ele><time>2026-04-28T16:30:34Z</time></trkpt><trkpt lat="45.06025199947707" lon="0.8672502624547497"><ele>208.0</ele><time>2026-04-28T16:30:38Z</time></trkpt><trkpt lat="45.06018813758046" lon="0.8672267691765065"><ele>208.0</ele><time>2026-04-28T16:30:45Z</time></trkpt><trkpt lat="45.0601154461337" lon="0.8671984059789434"><ele>208.0</ele><time>2026-04-28T16:30:51Z</time></trkpt><trkpt lat="45.060101639483364" lon="0.8672884305379323"><ele>208.0</ele><time>2026-04-28T16:31:01Z</time></trkpt><trkpt lat="45.060163314129184" lon="0.8673424706085489"><ele>208.0</ele><time>2026-04-28T16:31:07Z</time></trkpt><trkpt lat="45.06021468788789" lon="0.8674160440457506"><ele>208.0</ele><time>2026-04-28T16:31:12Z</time></trkpt><trkpt lat="45.06023561659671" lon="0.8675092104329082"><ele>208.0</ele><time>2026-04-28T16:31:17Z</time></trkpt><trkpt lat="45.06019808497708" lon="0.8676052447559285"><ele>208.0</ele><time>2026-04-28T16:31:23Z</time></trkpt><trkpt lat="45.06014844275675" lon="0.8676711425836187"><ele>208.0</ele><time>2026-04-28T16:31:29Z</time></trkpt><trkpt lat="45.06008979796205" lon="0.867732504060371"><ele>208.0</ele><time>2026-04-28T16:31:34Z</time></trkpt><trkpt lat="45.06005060336966" lon="0.8678160121732412"><ele>208.7142857142857</ele><time>2026-04-28T16:31:39Z</time></trkpt><trkpt lat="45.06010090418215" lon="0.8678838668709575"><ele>209.42857142857144</ele><time>2026-04-28T16:31:47Z</time></trkpt><trkpt lat="45.06017788346897" lon="0.8678799978304603"><ele>210.14285714285714</ele><time>2026-04-28T16:31:53Z</time></trkpt><trkpt lat="45.06024824684511" lon="0.8678599742595426"><ele>210.85714285714283</ele><time>2026-04-28T16:32:00Z</time></trkpt><trkpt lat="45.0603183801558" lon="0.8678304743225864"><ele>211.57142857142856</ele><time>2026-04-28T16:32:05Z</time></trkpt><trkpt lat="45.0603834895986" lon="0.8678204069944861"><ele>212.28571428571428</ele><time>2026-04-28T16:32:10Z</time></trkpt><trkpt lat="45.06044333421334" lon="0.8677603519218691"><ele>213.0</ele><time>2026-04-28T16:32:15Z</time></trkpt><trkpt lat="45.06049387389965" lon="0.8677043214947294"><ele>212.99999999999997</ele><time>2026-04-28T16:32:20Z</time></trkpt><trkpt lat="45.06056120684687" lon="0.8676425069713403"><ele>213.0</ele><time>2026-04-28T16:32:26Z</time></trkpt><trkpt lat="45.06062865299086" lon="0.8676665327970987"><ele>213.0</ele><time>2026-04-28T16:32:32Z</time></trkpt><trkpt lat="45.0606781295507" lon="0.867722674919302"><ele>213.0</ele><time>2026-04-28T16:32:36Z</time></trkpt><trkpt lat="45.06075324517671" lon="0.8677868148268959"><ele>213.0</ele><time>2026-04-28T16:32:41Z</time></trkpt><trkpt lat="45.0608060794244" lon="0.867852399903884"><ele>212.99999999999997</ele><time>2026-04-28T16:32:46Z</time></trkpt><trkpt lat="45.06085739566444" lon="0.867907405414321"><ele>213.0</ele><time>2026-04-28T16:32:51Z</time></trkpt><trkpt lat="45.06092841335148" lon="0.8678910126876015"><ele>212.42857142857142</ele><time>2026-04-28T16:33:10Z</time></trkpt><trkpt lat="45.06096145867154" lon="0.8677812494000232"><ele>211.85714285714286</ele><time>2026-04-28T16:33:33Z</time></trkpt><trkpt lat="45.061000211804824" lon="0.8676810985665939"><ele>211.28571428571428</ele><time>2026-04-28T16:33:38Z</time></trkpt><trkpt lat="45.06101287527571" lon="0.8675926012870886"><ele>210.71428571428572</ele><time>2026-04-28T16:33:48Z</time></trkpt><trkpt lat="45.06103300837829" lon="0.8674949737009771"><ele>210.14285714285714</ele><time>2026-04-28T16:33:55Z</time></trkpt><trkpt lat="45.061080665981805" lon="0.8674226083825203"><ele>209.57142857142856</ele><time>2026-04-28T16:34:02Z</time></trkpt><trkpt lat="45.06111659116459" lon="0.867338325051479"><ele>209.0</ele><time>2026-04-28T16:34:15Z</time></trkpt><trkpt lat="45.061174985602705" lon="0.8672969272487736"><ele>208.28571428571428</ele><time>2026-04-28T16:34:20Z</time></trkpt><trkpt lat="45.061238919546476" lon="0.8672695180682238"><ele>207.57142857142856</ele><time>2026-04-28T16:34:25Z</time></trkpt><trkpt lat="45.061306398800745" lon="0.8672185548032885"><ele>206.85714285714286</ele><time>2026-04-28T16:34:33Z</time></trkpt><trkpt lat="45.06136935639776" lon="0.8671549233359674"><ele>206.14285714285714</ele><time>2026-04-28T16:34:38Z</time></trkpt><trkpt lat="45.06141652159975" lon="0.8670853427174681"><ele>205.42857142857144</ele><time>2026-04-28T16:34:42Z</time></trkpt><trkpt lat="45.061459548837604" lon="0.8670000703756117"><ele>204.71428571428572</ele><time>2026-04-28T16:34:46Z</time></trkpt><trkpt lat="45.061517472950904" lon="0.8669452999325643"><ele>204.0</ele><time>2026-04-28T16:34:50Z</time></trkpt><trkpt lat="45.06158443989684" lon="0.866930916707923"><ele>203.0</ele><time>2026-04-28T16:35:16Z</time></trkpt><trkpt lat="45.061627700798496" lon="0.8670183912518946"><ele>202.0</ele><time>2026-04-28T16:35:24Z</time></trkpt><trkpt lat="45.061636280710665" lon="0.8671146544996039"><ele>201.0</ele><time>2026-04-28T16:35:28Z</time></trkpt><trkpt lat="45.06162189832713" lon="0.8672052899758924"><ele>200.0</ele><time>2026-04-28T16:35:32Z</time></trkpt><trkpt lat="45.061645653128835" lon="0.8672906616040711"><ele>199.0</ele><time>2026-04-28T16:35:37Z</time></trkpt><trkpt lat="45.0616712522423" lon="0.8673761226513241"><ele>198.0</ele><time>2026-04-28T16:35:42Z</time></trkpt><trkpt lat="45.06169777169518" lon="0.8674593410098651"><ele>197.0</ele><time>2026-04-28T16:35:47Z</time></trkpt><trkpt lat="45.061723164406224" lon="0.8675600233132165"><ele>197.85714285714286</ele><time>2026-04-28T16:35:52Z</time></trkpt><trkpt lat="45.06174608989487" lon="0.8676480971496201"><ele>198.71428571428572</ele><time>2026-04-28T16:35:57Z</time></trkpt><trkpt lat="45.06178443020595" lon="0.8677361967785807"><ele>199.57142857142856</ele><time>2026-04-28T16:36:02Z</time></trkpt><trkpt lat="45.06183241457135" lon="0.8678240291680592"><ele>200.42857142857144</ele><time>2026-04-28T16:36:07Z</time></trkpt><trkpt lat="45.06188447934149" lon="0.8678920754001025"><ele>201.28571428571428</ele><time>2026-04-28T16:36:12Z</time></trkpt><trkpt lat="45.06194804109795" lon="0.8678423699424529"><ele>202.14285714285714</ele><time>2026-04-28T16:36:39Z</time></trkpt><trkpt lat="45.06200735753511" lon="0.8678078300941332"><ele>203.0</ele><time>2026-04-28T16:36:44Z</time></trkpt><trkpt lat="45.0620916250188" lon="0.867782294191676"><ele>203.0</ele><time>2026-04-28T16:36:48Z</time></trkpt><trkpt lat="45.062138234302026" lon="0.8678735384339021"><ele>203.0</ele><time>2026-04-28T16:36:52Z</time></trkpt><trkpt lat="45.06220430999239" lon="0.8679254395750149"><ele>203.0</ele><time>2026-04-28T16:36:57Z</time></trkpt><trkpt lat="45.062262249292374" lon="0.8679712685263504"><ele>203.0</ele><time>2026-04-28T16:37:02Z</time></trkpt><trkpt lat="45.06233076274976" lon="0.8680202670160213"><ele>203.0</ele><time>2026-04-28T16:37:08Z</time></trkpt><trkpt lat="45.06239085914311" lon="0.8680631068958431"><ele>203.0</ele><time>2026-04-28T16:37:13Z</time></trkpt><trkpt lat="45.06245552226336" lon="0.8681052070704142"><ele>203.0</ele><time>2026-04-28T16:37:19Z</time></trkpt><trkpt lat="45.06251823882497" lon="0.8681252101799198"><ele>202.42857142857142</ele><time>2026-04-28T16:37:24Z</time></trkpt><trkpt lat="45.06254881613895" lon="0.8682031481873416"><ele>201.85714285714286</ele><time>2026-04-28T16:37:39Z</time></trkpt><trkpt lat="45.06258268982887" lon="0.8682794291515088"><ele>201.28571428571428</ele><time>2026-04-28T16:37:43Z</time></trkpt><trkpt lat="45.06261691275075" lon="0.8683599146827513"><ele>200.71428571428572</ele><time>2026-04-28T16:37:48Z</time></trkpt><trkpt lat="45.06266898212672" lon="0.8684285140762565"><ele>200.14285714285714</ele><time>2026-04-28T16:37:54Z</time></trkpt><trkpt lat="45.06273009061587" lon="0.8684504005404031"><ele>199.57142857142856</ele><time>2026-04-28T16:37:58Z</time></trkpt><trkpt lat="45.062763063671206" lon="0.8685405900223959"><ele>199.0</ele><time>2026-04-28T16:38:02Z</time></trkpt><trkpt lat="45.06281326386406" lon="0.8686123513228722"><ele>198.99999999999997</ele><time>2026-04-28T16:38:09Z</time></trkpt><trkpt lat="45.06287815088578" lon="0.8685833419318888"><ele>199.0</ele><time>2026-04-28T16:38:32Z</time></trkpt><trkpt lat="45.062930796962064" lon="0.8685191704738433"><ele>199.0</ele><time>2026-04-28T16:38:38Z</time></trkpt><trkpt lat="45.06299355171615" lon="0.8684720026249482"><ele>199.0</ele><time>2026-04-28T16:38:41Z</time></trkpt><trkpt lat="45.063054584230954" lon="0.8684328453590766"><ele>199.0</ele><time>2026-04-28T16:38:45Z</time></trkpt><trkpt lat="45.063098516263175" lon="0.8683637806906191"><ele>198.99999999999997</ele><time>2026-04-28T16:38:49Z</time></trkpt><trkpt lat="45.06315310048311" lon="0.8682884235605653"><ele>199.0</ele><time>2026-04-28T16:38:54Z</time></trkpt><trkpt lat="45.06318646519568" lon="0.8681966022619817"><ele>197.66666666666666</ele><time>2026-04-28T16:38:59Z</time></trkpt><trkpt lat="45.06322773390318" lon="0.8681237893559469"><ele>196.33333333333331</ele><time>2026-04-28T16:39:05Z</time></trkpt><trkpt lat="45.063287735849855" lon="0.8680398927878937"><ele>195.0</ele><time>2026-04-28T16:39:11Z</time></trkpt><trkpt lat="45.06337187511519" lon="0.8680533137934038"><ele>193.66666666666666</ele><time>2026-04-28T16:39:29Z</time></trkpt><trkpt lat="45.06337848140074" lon="0.8681555089675694"><ele>192.33333333333331</ele><time>2026-04-28T16:39:34Z</time></trkpt><trkpt lat="45.06334387900722" lon="0.8682670505903266"><ele>191.0</ele><time>2026-04-28T16:39:38Z</time></trkpt><trkpt lat="45.06333005578474" lon="0.8683634433104586"><ele>190.71428571428572</ele><time>2026-04-28T16:39:42Z</time></trkpt><trkpt lat="45.06329148027563" lon="0.8684352198987494"><ele>190.42857142857142</ele><time>2026-04-28T16:39:47Z</time></trkpt><trkpt lat="45.06333352099834" lon="0.8685241611113483"><ele>190.14285714285714</ele><time>2026-04-28T16:39:54Z</time></trkpt><trkpt lat="45.06339866067743" lon="0.8685712762826955"><ele>189.85714285714286</ele><time>2026-04-28T16:39:59Z</time></trkpt><trkpt lat="45.06346671076486" lon="0.8685387489180371"><ele>189.57142857142856</ele><time>2026-04-28T16:40:09Z</time></trkpt><trkpt lat="45.06352833985698" lon="0.8684906239580931"><ele>189.28571428571428</ele><time>2026-04-28T16:40:50Z</time></trkpt><trkpt lat="45.06358650229979" lon="0.8684402249012559"><ele>189.0</ele><time>2026-04-28T16:40:54Z</time></trkpt><trkpt lat="45.06365287344911" lon="0.8684008660817051"><ele>188.71428571428572</ele><time>2026-04-28T16:41:21Z</time></trkpt><trkpt lat="45.06369195923652" lon="0.8683201721552056"><ele>188.42857142857144</ele><time>2026-04-28T16:41:28Z</time></trkpt><trkpt lat="45.06375888334803" lon="0.8682794971648303"><ele>188.14285714285714</ele><time>2026-04-28T16:41:33Z</time></trkpt><trkpt lat="45.06382411408514" lon="0.8682588450212321"><ele>187.85714285714286</ele><time>2026-04-28T16:41:37Z</time></trkpt><trkpt lat="45.063889812955864" lon="0.8682481601350754"><ele>187.57142857142858</ele><time>2026-04-28T16:41:43Z</time></trkpt><trkpt lat="45.063948393173796" lon="0.8682902635635618"><ele>187.28571428571428</ele><time>2026-04-28T16:41:48Z</time></trkpt><trkpt lat="45.06400489999064" lon="0.8683352907253765"><ele>187.0</ele><time>2026-04-28T16:41:54Z</time></trkpt><trkpt lat="45.06403837240366" lon="0.8684168747483578"><ele>187.28571428571428</ele><time>2026-04-28T16:41:58Z</time></trkpt><trkpt lat="45.06407855834454" lon="0.8684903840735253"><ele>187.57142857142858</ele><time>2026-04-28T16:42:02Z</time></trkpt><trkpt lat="45.06414290944656" lon="0.86855319659435"><ele>187.85714285714286</ele><time>2026-04-28T16:42:14Z</time></trkpt><trkpt lat="45.064188041500906" lon="0.8686317569049932"><ele>188.14285714285714</ele><time>2026-04-28T16:42:20Z</time></trkpt><trkpt lat="45.06423902557092" lon="0.8686861762549313"><ele>188.42857142857144</ele><time>2026-04-28T16:42:25Z</time></trkpt><trkpt lat="45.06429175786791" lon="0.868739668993138"><ele>188.71428571428572</ele><time>2026-04-28T16:42:30Z</time></trkpt><trkpt lat="45.06435847861959" lon="0.8687834360691604"><ele>189.0</ele><time>2026-04-28T16:42:36Z</time></trkpt><trkpt lat="45.064413410528864" lon="0.8688482537811546"><ele>188.42857142857142</ele><time>2026-04-28T16:42:41Z</time></trkpt><trkpt lat="45.06445207117449" lon="0.8689216950814397"><ele>187.85714285714286</ele><time>2026-04-28T16:42:46Z</time></trkpt><trkpt lat="45.06445648970029" lon="0.8690274555569539"><ele>187.28571428571428</ele><time>2026-04-28T16:42:52Z</time></trkpt><trkpt lat="45.064436339832376" lon="0.8691305107740721"><ele>186.71428571428572</ele><time>2026-04-28T16:42:57Z</time></trkpt><trkpt lat="45.064396506296745" lon="0.8692215802174693"><ele>186.14285714285714</ele><time>2026-04-28T16:43:01Z</time></trkpt><trkpt lat="45.0643590098208" lon="0.869303651646915"><ele>185.57142857142856</ele><time>2026-04-28T16:43:05Z</time></trkpt><trkpt lat="45.06434321929559" lon="0.8693910807753137"><ele>185.0</ele><time>2026-04-28T16:43:09Z</time></trkpt><trkpt lat="45.06434877726787" lon="0.8694867813758325"><ele>184.99999999999997</ele><time>2026-04-28T16:43:13Z</time></trkpt><trkpt lat="45.06433051485977" lon="0.8695980638066502"><ele>185.0</ele><time>2026-04-28T16:43:19Z</time></trkpt><trkpt lat="45.06434332162498" lon="0.8696894662518767"><ele>185.0</ele><time>2026-04-28T16:43:23Z</time></trkpt><trkpt lat="45.06434163487203" lon="0.8697886475757478"><ele>185.0</ele><time>2026-04-28T16:43:28Z</time></trkpt><trkpt lat="45.06431898342965" lon="0.8698741506256278"><ele>185.0</ele><time>2026-04-28T16:43:33Z</time></trkpt><trkpt lat="45.0643221335814" lon="0.8699978731675191"><ele>184.99999999999997</ele><time>2026-04-28T16:44:04Z</time></trkpt><trkpt lat="45.06430071148733" lon="0.8700993393330074"><ele>185.0</ele><time>2026-04-28T16:44:10Z</time></trkpt><trkpt lat="45.06434857949572" lon="0.8701705856615333"><ele>186.14285714285714</ele><time>2026-04-28T16:44:27Z</time></trkpt><trkpt lat="45.064406041366226" lon="0.8702135155305146"><ele>187.28571428571428</ele><time>2026-04-28T16:44:32Z</time></trkpt><trkpt lat="45.06447770373157" lon="0.8702560895691647"><ele>188.42857142857144</ele><time>2026-04-28T16:44:37Z</time></trkpt><trkpt lat="45.06454212756387" lon="0.8702924753996937"><ele>189.57142857142856</ele><time>2026-04-28T16:44:42Z</time></trkpt><trkpt lat="45.06460247255715" lon="0.8703203437853593"><ele>190.71428571428572</ele><time>2026-04-28T16:44:48Z</time></trkpt><trkpt lat="45.064672788300676" lon="0.8703321818541992"><ele>191.85714285714286</ele><time>2026-04-28T16:44:53Z</time></trkpt><trkpt lat="45.06475128935775" lon="0.8703512672791287"><ele>193.0</ele><time>2026-04-28T16:44:58Z</time></trkpt><trkpt lat="45.06481794403767" lon="0.8703861008052495"><ele>193.00000000000003</ele><time>2026-04-28T16:45:03Z</time></trkpt><trkpt lat="45.064878623128" lon="0.870455788549711"><ele>193.0</ele><time>2026-04-28T16:45:08Z</time></trkpt><trkpt lat="45.06491620973254" lon="0.8705296567327478"><ele>193.0</ele><time>2026-04-28T16:45:13Z</time></trkpt><trkpt lat="45.064896726643546" lon="0.8706229472991814"><ele>193.0</ele><time>2026-04-28T16:45:18Z</time></trkpt><trkpt lat="45.064835580003795" lon="0.870660604930046"><ele>193.0</ele><time>2026-04-28T16:45:28Z</time></trkpt><trkpt lat="45.06478072219415" lon="0.8706132488486712"><ele>193.00000000000003</ele><time>2026-04-28T16:45:33Z</time></trkpt><trkpt lat="45.06470909300357" lon="0.8705565728415589"><ele>193.0</ele><time>2026-04-28T16:45:39Z</time></trkpt><trkpt lat="45.06465176660398" lon="0.8705133745590986"><ele>193.00000000000003</ele><time>2026-04-28T16:45:44Z</time></trkpt><trkpt lat="45.06459283556114" lon="0.8704743048029515"><ele>193.0</ele><time>2026-04-28T16:45:49Z</time></trkpt><trkpt lat="45.0645204699067" lon="0.8704529583132484"><ele>193.0</ele><time>2026-04-28T16:45:54Z</time></trkpt><trkpt lat="45.06445502369008" lon="0.8704344630595706"><ele>193.0</ele><time>2026-04-28T16:46:01Z</time></trkpt><trkpt lat="45.064392892707396" lon="0.8704147916393417"><ele>193.0</ele><time>2026-04-28T16:46:05Z</time></trkpt><trkpt lat="45.06432697397361" lon="0.8703628021873789"><ele>193.00000000000003</ele><time>2026-04-28T16:46:11Z</time></trkpt><trkpt lat="45.06427356006717" lon="0.8703141316789899"><ele>193.0</ele><time>2026-04-28T16:46:17Z</time></trkpt><trkpt lat="45.0642074763519" lon="0.8702968086244003"><ele>193.00000000000003</ele><time>2026-04-28T16:46:29Z</time></trkpt><trkpt lat="45.064130990085935" lon="0.8702726312355752"><ele>193.0</ele><time>2026-04-28T16:46:34Z</time></trkpt><trkpt lat="45.06406322675366" lon="0.8702793308169003"><ele>193.0</ele><time>2026-04-28T16:46:47Z</time></trkpt><trkpt lat="45.06399065424071" lon="0.870249880090326"><ele>193.0</ele><time>2026-04-28T16:46:52Z</time></trkpt><trkpt lat="45.06394661030752" lon="0.8701769932508536"><ele>193.0</ele><time>2026-04-28T16:46:57Z</time></trkpt><trkpt lat="45.063905413111634" lon="0.8700788051279151"><ele>193.00000000000003</ele><time>2026-04-28T16:47:02Z</time></trkpt><trkpt lat="45.06386269711905" lon="0.8699992995547808"><ele>193.0</ele><time>2026-04-28T16:47:11Z</time></trkpt><trkpt lat="45.06384503220638" lon="0.8699076262364869"><ele>193.42857142857144</ele><time>2026-04-28T16:47:18Z</time></trkpt><trkpt lat="45.063846277503536" lon="0.8698049511352938"><ele>193.85714285714286</ele><time>2026-04-28T16:47:27Z</time></trkpt><trkpt lat="45.06387229631838" lon="0.8697200592725128"><ele>194.28571428571428</ele><time>2026-04-28T16:48:32Z</time></trkpt><trkpt lat="45.06393313939255" lon="0.869748868888952"><ele>194.71428571428572</ele><time>2026-04-28T16:48:37Z</time></trkpt><trkpt lat="45.06399708929184" lon="0.8697674597499422"><ele>195.14285714285714</ele><time>2026-04-28T16:48:41Z</time></trkpt><trkpt lat="45.06405882242713" lon="0.869795734711793"><ele>195.57142857142858</ele><time>2026-04-28T16:48:45Z</time></trkpt><trkpt lat="45.06409060702949" lon="0.8697176430698338"><ele>196.0</ele><time>2026-04-28T16:48:55Z</time></trkpt><trkpt lat="45.06412208917377" lon="0.869626154532337"><ele>195.0</ele><time>2026-04-28T16:49:01Z</time></trkpt><trkpt lat="45.06411873372456" lon="0.8695236848342521"><ele>194.0</ele><time>2026-04-28T16:49:18Z</time></trkpt><trkpt lat="45.06414460272871" lon="0.8694383374287709"><ele>193.0</ele><time>2026-04-28T16:49:22Z</time></trkpt><trkpt lat="45.064171373037546" lon="0.8693408906668443"><ele>192.0</ele><time>2026-04-28T16:49:28Z</time></trkpt><trkpt lat="45.06415608280308" lon="0.8692382314436918"><ele>191.0</ele><time>2026-04-28T16:49:33Z</time></trkpt><trkpt lat="45.06411984769241" lon="0.8691521822286864"><ele>190.0</ele><time>2026-04-28T16:49:38Z</time></trkpt><trkpt lat="45.06406101163324" lon="0.8690836989121373"><ele>189.0</ele><time>2026-04-28T16:49:43Z</time></trkpt><trkpt lat="45.06400074427214" lon="0.8690248772447883"><ele>189.0</ele><time>2026-04-28T16:49:49Z</time></trkpt><trkpt lat="45.06394445211599" lon="0.8689455669443307"><ele>189.0</ele><time>2026-04-28T16:49:54Z</time></trkpt><trkpt lat="45.06388460515137" lon="0.8689079696444283"><ele>189.0</ele><time>2026-04-28T16:49:59Z</time></trkpt><trkpt lat="45.06382663349955" lon="0.8688569899499079"><ele>189.0</ele><time>2026-04-28T16:50:04Z</time></trkpt><trkpt lat="45.06375605699841" lon="0.8688597031683488"><ele>189.0</ele><time>2026-04-28T16:50:09Z</time></trkpt><trkpt lat="45.06368783614447" lon="0.8688749292943438"><ele>189.0</ele><time>2026-04-28T16:50:17Z</time></trkpt><trkpt lat="45.06362231018704" lon="0.8689231648847722"><ele>189.0</ele><time>2026-04-28T16:50:24Z</time></trkpt><trkpt lat="45.06357933964645" lon="0.8690114320131844"><ele>189.0</ele><time>2026-04-28T16:50:29Z</time></trkpt><trkpt lat="45.063536083672936" lon="0.8690907195012348"><ele>189.0</ele><time>2026-04-28T16:50:35Z</time></trkpt><trkpt lat="45.06347521565866" lon="0.8691302762706552"><ele>189.0</ele><time>2026-04-28T16:50:40Z</time></trkpt><trkpt lat="45.06342331325566" lon="0.8691809432728184"><ele>189.0</ele><time>2026-04-28T16:50:45Z</time></trkpt><trkpt lat="45.063355102562916" lon="0.869218945962907"><ele>189.0</ele><time>2026-04-28T16:50:52Z</time></trkpt><trkpt lat="45.063308758255175" lon="0.8693076050659568"><ele>189.0</ele><time>2026-04-28T16:50:58Z</time></trkpt><trkpt lat="45.06324494365418" lon="0.8693517670552535"><ele>189.0</ele><time>2026-04-28T16:51:04Z</time></trkpt><trkpt lat="45.06318091923636" lon="0.8693821444852577"><ele>191.71428571428572</ele><time>2026-04-28T16:51:10Z</time></trkpt><trkpt lat="45.06315493863237" lon="0.8694645189321937"><ele>194.42857142857144</ele><time>2026-04-28T16:51:23Z</time></trkpt><trkpt lat="45.06310437338241" lon="0.8695231885939685"><ele>197.14285714285714</ele><time>2026-04-28T16:51:27Z</time></trkpt><trkpt lat="45.063088305138294" lon="0.8696135883246006"><ele>199.85714285714286</ele><time>2026-04-28T16:51:32Z</time></trkpt><trkpt lat="45.06301338723191" lon="0.8696396268116754"><ele>202.57142857142858</ele><time>2026-04-28T16:51:37Z</time></trkpt><trkpt lat="45.06294735758288" lon="0.8696459096551382"><ele>205.28571428571428</ele><time>2026-04-28T16:51:44Z</time></trkpt><trkpt lat="45.06290522903892" lon="0.8695643316255824"><ele>208.0</ele><time>2026-04-28T16:51:56Z</time></trkpt><trkpt lat="45.06288830985223" lon="0.869466034703724"><ele>208.0</ele><time>2026-04-28T16:52:00Z</time></trkpt><trkpt lat="45.062835961208066" lon="0.8693884464472544"><ele>208.0</ele><time>2026-04-28T16:52:16Z</time></trkpt><trkpt lat="45.06281604350729" lon="0.8693007153086297"><ele>208.0</ele><time>2026-04-28T16:52:21Z</time></trkpt><trkpt lat="45.062825014244964" lon="0.8691829224810741"><ele>208.0</ele><time>2026-04-28T16:52:36Z</time></trkpt><trkpt lat="45.062764545528374" lon="0.8691174677806497"><ele>208.0</ele><time>2026-04-28T16:52:45Z</time></trkpt><trkpt lat="45.06270361883869" lon="0.8690719835742399"><ele>208.0</ele><time>2026-04-28T16:52:50Z</time></trkpt><trkpt lat="45.06264647674949" lon="0.8690126891905304"><ele>208.0</ele><time>2026-04-28T16:52:55Z</time></trkpt><trkpt lat="45.0626174371523" lon="0.8689224125585763"><ele>207.28571428571428</ele><time>2026-04-28T16:53:02Z</time></trkpt><trkpt lat="45.06262041403617" lon="0.8688122653990206"><ele>206.57142857142858</ele><time>2026-04-28T16:53:18Z</time></trkpt><trkpt lat="45.06264326500363" lon="0.8687191503046668"><ele>205.85714285714286</ele><time>2026-04-28T16:53:25Z</time></trkpt><trkpt lat="45.06260112816172" lon="0.868629059337471"><ele>205.14285714285714</ele><time>2026-04-28T16:53:52Z</time></trkpt><trkpt lat="45.06255987816121" lon="0.8685451941638337"><ele>204.42857142857144</ele><time>2026-04-28T16:53:56Z</time></trkpt><trkpt lat="45.06250500047388" lon="0.8684799702762285"><ele>203.71428571428572</ele><time>2026-04-28T16:54:03Z</time></trkpt><trkpt lat="45.062444983155906" lon="0.8684045728704941"><ele>203.0</ele><time>2026-04-28T16:54:08Z</time></trkpt><trkpt lat="45.06240409641243" lon="0.8683318968259194"><ele>203.0</ele><time>2026-04-28T16:54:12Z</time></trkpt><trkpt lat="45.06234595563996" lon="0.8682785212752865"><ele>203.0</ele><time>2026-04-28T16:54:16Z</time></trkpt><trkpt lat="45.062307315970735" lon="0.8683632464690811"><ele>203.0</ele><time>2026-04-28T16:54:48Z</time></trkpt><trkpt lat="45.062253472866" lon="0.8684116901563399"><ele>203.0</ele><time>2026-04-28T16:54:55Z</time></trkpt><trkpt lat="45.06220632076596" lon="0.8684827081183742"><ele>203.0</ele><time>2026-04-28T16:55:04Z</time></trkpt><trkpt lat="45.06212285892853" lon="0.8685601935125168"><ele>203.0</ele><time>2026-04-28T16:55:13Z</time></trkpt><trkpt lat="45.0620639201207" lon="0.8685929220363081"><ele>203.0</ele><time>2026-04-28T16:55:18Z</time></trkpt><trkpt lat="45.062012342570256" lon="0.8686498487780899"><ele>203.0</ele><time>2026-04-28T16:55:25Z</time></trkpt><trkpt lat="45.061951987427186" lon="0.8686795230539629"><ele>203.0</ele><time>2026-04-28T16:55:40Z</time></trkpt><trkpt lat="45.06188775241316" lon="0.8686481367508478"><ele>203.0</ele><time>2026-04-28T16:55:48Z</time></trkpt><trkpt lat="45.06183191521121" lon="0.8685934263976294"><ele>203.0</ele><time>2026-04-28T16:55:53Z</time></trkpt><trkpt lat="45.0617912240127" lon="0.8685179646196517"><ele>203.0</ele><time>2026-04-28T16:55:59Z</time></trkpt><trkpt lat="45.06175287759489" lon="0.8684265969760371"><ele>203.0</ele><time>2026-04-28T16:56:04Z</time></trkpt><trkpt lat="45.06173468645549" lon="0.8683213560338684"><ele>203.0</ele><time>2026-04-28T16:56:09Z</time></trkpt><trkpt lat="45.06170352362471" lon="0.8682232034368789"><ele>203.0</ele><time>2026-04-28T16:56:14Z</time></trkpt><trkpt lat="45.061664533136266" lon="0.8681439717481756"><ele>203.0</ele><time>2026-04-28T16:56:23Z</time></trkpt><trkpt lat="45.06164051973112" lon="0.8680558481522667"><ele>203.0</ele><time>2026-04-28T16:56:27Z</time></trkpt><trkpt lat="45.06160928116028" lon="0.8679691222691323"><ele>203.0</ele><time>2026-04-28T16:56:32Z</time></trkpt><trkpt lat="45.061552696604764" lon="0.8679149303296323"><ele>203.0</ele><time>2026-04-28T16:56:38Z</time></trkpt><trkpt lat="45.0614886458286" lon="0.8678636858344702"><ele>203.0</ele><time>2026-04-28T16:56:44Z</time></trkpt><trkpt lat="45.061426503832166" lon="0.867823800900281"><ele>203.0</ele><time>2026-04-28T16:56:50Z</time></trkpt><trkpt lat="45.06136550143782" lon="0.8677727916349575"><ele>203.85714285714286</ele><time>2026-04-28T16:56:55Z</time></trkpt><trkpt lat="45.061300846199394" lon="0.8677422774622218"><ele>204.71428571428572</ele><time>2026-04-28T16:57:04Z</time></trkpt><trkpt lat="45.06122587177019" lon="0.8677118434666902"><ele>205.57142857142856</ele><time>2026-04-28T16:57:11Z</time></trkpt><trkpt lat="45.06116697254857" lon="0.8677624342984896"><ele>206.42857142857144</ele><time>2026-04-28T16:57:16Z</time></trkpt><trkpt lat="45.06111157453081" lon="0.8678215800538618"><ele>207.28571428571428</ele><time>2026-04-28T16:57:21Z</time></trkpt><trkpt lat="45.06106749855821" lon="0.8678950311222053"><ele>208.14285714285714</ele><time>2026-04-28T16:57:27Z</time></trkpt><trkpt lat="45.06102341145843" lon="0.8679757892365887"><ele>209.0</ele><time>2026-04-28T16:57:36Z</time></trkpt><trkpt lat="45.06098928149947" lon="0.868059343699893"><ele>209.0</ele><time>2026-04-28T16:57:44Z</time></trkpt><trkpt lat="45.06093336590689" lon="0.8681205600221704"><ele>209.0</ele><time>2026-04-28T16:57:50Z</time></trkpt><trkpt lat="45.060877111854786" lon="0.8681728886006946"><ele>209.0</ele><time>2026-04-28T16:57:55Z</time></trkpt><trkpt lat="45.06081680575718" lon="0.8682246071393217"><ele>209.0</ele><time>2026-04-28T16:58:00Z</time></trkpt><trkpt lat="45.06075624863551" lon="0.8682689585682108"><ele>209.0</ele><time>2026-04-28T16:58:05Z</time></trkpt><trkpt lat="45.060713471664116" lon="0.8683385611304865"><ele>209.0</ele><time>2026-04-28T16:58:12Z</time></trkpt><trkpt lat="45.06066577108833" lon="0.8684051425936341"><ele>209.0</ele><time>2026-04-28T16:58:17Z</time></trkpt><trkpt lat="45.0606366169202" lon="0.8684926270407659"><ele>210.57142857142856</ele><time>2026-04-28T16:58:22Z</time></trkpt><trkpt lat="45.06063413477939" lon="0.8686010305029002"><ele>212.14285714285714</ele><time>2026-04-28T16:58:28Z</time></trkpt><trkpt lat="45.06064771255087" lon="0.8687001152357291"><ele>213.71428571428572</ele><time>2026-04-28T16:58:35Z</time></trkpt><trkpt lat="45.060637086408555" lon="0.8687943199354964"><ele>215.28571428571428</ele><time>2026-04-28T16:58:40Z</time></trkpt><trkpt lat="45.060583358879626" lon="0.8688550058609423"><ele>216.85714285714286</ele><time>2026-04-28T16:58:46Z</time></trkpt><trkpt lat="45.06051728376923" lon="0.8688373099719121"><ele>218.42857142857142</ele><time>2026-04-28T16:58:51Z</time></trkpt><trkpt lat="45.06045086941682" lon="0.868790978795114"><ele>220.0</ele><time>2026-04-28T16:58:56Z</time></trkpt><trkpt lat="45.06039801432851" lon="0.8687283005217842"><ele>219.99999999999997</ele><time>2026-04-28T16:59:01Z</time></trkpt><trkpt lat="45.060374857193175" lon="0.8686222409966016"><ele>220.0</ele><time>2026-04-28T16:59:06Z</time></trkpt><trkpt lat="45.0603773181105" lon="0.8685208616646793"><ele>220.0</ele><time>2026-04-28T16:59:11Z</time></trkpt><trkpt lat="45.060379367795676" lon="0.8684155246140476"><ele>220.0</ele><time>2026-04-28T16:59:15Z</time></trkpt><trkpt lat="45.060388803919444" lon="0.8683268397997828"><ele>220.0</ele><time>2026-04-28T16:59:19Z</time></trkpt><trkpt lat="45.06039435111225" lon="0.8682160776602537"><ele>219.99999999999997</ele><time>2026-04-28T16:59:24Z</time></trkpt><trkpt lat="45.06038307383446" lon="0.8681271978420027"><ele>220.0</ele><time>2026-04-28T16:59:28Z</time></trkpt><trkpt lat="45.06037687521301" lon="0.8680232624751458"><ele>219.85714285714283</ele><time>2026-04-28T16:59:33Z</time></trkpt><trkpt lat="45.06029493170404" lon="0.8679917088202588"><ele>219.71428571428572</ele><time>2026-04-28T16:59:48Z</time></trkpt><trkpt lat="45.06023707124907" lon="0.8680489502470896"><ele>219.57142857142856</ele><time>2026-04-28T16:59:53Z</time></trkpt><trkpt lat="45.06017579718229" lon="0.8681086533116305"><ele>219.42857142857142</ele><time>2026-04-28T16:59:58Z</time></trkpt><trkpt lat="45.060132098403265" lon="0.8681926295034726"><ele>219.28571428571428</ele><time>2026-04-28T17:00:03Z</time></trkpt><trkpt lat="45.060075504876565" lon="0.8682457913526842"><ele>219.14285714285714</ele><time>2026-04-28T17:00:08Z</time></trkpt><trkpt lat="45.06000281000995" lon="0.8682304774659002"><ele>219.0</ele><time>2026-04-28T17:00:14Z</time></trkpt><trkpt lat="45.05993948536486" lon="0.8682119473216683"><ele>219.0</ele><time>2026-04-28T17:00:19Z</time></trkpt><trkpt lat="45.05987095337116" lon="0.8682011669269665"><ele>219.0</ele><time>2026-04-28T17:00:24Z</time></trkpt><trkpt lat="45.05979631435593" lon="0.8681850654534027"><ele>219.0</ele><time>2026-04-28T17:00:39Z</time></trkpt><trkpt lat="45.059799750257696" lon="0.8680928790050155"><ele>219.0</ele><time>2026-04-28T17:00:43Z</time></trkpt><trkpt lat="45.05982769253657" lon="0.8679929641565912"><ele>219.0</ele><time>2026-04-28T17:00:48Z</time></trkpt><trkpt lat="45.059854163040974" lon="0.8679077544146372"><ele>219.0</ele><time>2026-04-28T17:00:52Z</time></trkpt><trkpt lat="45.05987865717281" lon="0.8678171247922459"><ele>219.0</ele><time>2026-04-28T17:00:56Z</time></trkpt><trkpt lat="45.05987605624174" lon="0.8677229950293179"><ele>219.0</ele><time>2026-04-28T17:01:00Z</time></trkpt><trkpt lat="45.05984161541833" lon="0.8676475742558486"><ele>219.0</ele><time>2026-04-28T17:01:04Z</time></trkpt><trkpt lat="45.05976603379863" lon="0.8676530356826708"><ele>219.0</ele><time>2026-04-28T17:01:08Z</time></trkpt><trkpt lat="45.05969914154437" lon="0.8676962569978075"><ele>219.0</ele><time>2026-04-28T17:01:12Z</time></trkpt><trkpt lat="45.05962598377538" lon="0.8677277671474173"><ele>219.0</ele><time>2026-04-28T17:01:17Z</time></trkpt><trkpt lat="45.059563488143795" lon="0.8676890601001432"><ele>219.0</ele><time>2026-04-28T17:01:32Z</time></trkpt><trkpt lat="45.05949437136719" lon="0.86765048983475"><ele>219.0</ele><time>2026-04-28T17:01:38Z</time></trkpt><trkpt lat="45.05944366605574" lon="0.8675864618837282"><ele>218.14285714285714</ele><time>2026-04-28T17:01:43Z</time></trkpt><trkpt lat="45.05944415424579" lon="0.867493128742756"><ele>217.28571428571428</ele><time>2026-04-28T17:01:47Z</time></trkpt><trkpt lat="45.05946147104327" lon="0.8673989615079591"><ele>216.42857142857142</ele><time>2026-04-28T17:01:51Z</time></trkpt><trkpt lat="45.05948616343858" lon="0.8673023376156364"><ele>215.57142857142856</ele><time>2026-04-28T17:01:55Z</time></trkpt><trkpt lat="45.059489913735355" lon="0.8672100912481114"><ele>214.71428571428572</ele><time>2026-04-28T17:01:59Z</time></trkpt><trkpt lat="45.05946589458384" lon="0.8671016686386629"><ele>213.85714285714283</ele><time>2026-04-28T17:02:04Z</time></trkpt><trkpt lat="45.05942646859386" lon="0.8670173226153388"><ele>213.0</ele><time>2026-04-28T17:02:09Z</time></trkpt><trkpt lat="45.059374874449006" lon="0.8669612066600954"><ele>213.0</ele><time>2026-04-28T17:02:15Z</time></trkpt><trkpt lat="45.05931421184915" lon="0.8669962311519614"><ele>213.0</ele><time>2026-04-28T17:02:20Z</time></trkpt></trkseg></trk></gpx>